Startpagina
METAR-TAF:

METAR-TAF

Vliegvelden :

Caïro, Egypte

Luchthaven Caïro Internationaal

breedte: 30-08N, lengte: 031-24E, hoogte: 64 m

Actueel weer

Dit bericht is 11 minuten geleden gemaakt, om 00:00 UTC
Wind 5 kt uit het noordnoordoosten
Temperatuur 27°C
Vochtigheid 70%
Druk 1012 hPa
Zicht: 6000 m

METAR: HECA 200000Z 02005KT 6000 NSC 27/21 Q1012 NOSIG

Tijdstip: 02:11 (00:11 UTC)

Verwachting

Dit bericht is 1 uur en het 11 minuten geleden gemaakt, om 23:00 UTC
Verwachting geldig van 20 om 00 UTC tot 21 om 06 UTC
Wind 10 kt uit het noorden
Zicht 10 km of meer
geen wolken onder 1500 m en geen cumulonimbus
Tijdelijke
van 20 om 00 UTC tot 20 om 08 UTC
Wind 3 kt uit variabele richting
Zicht: 6000 m
Tijdelijke
van 20 om 03 UTC tot 20 om 06 UTC
Zicht: 3000 m
nevel

TAF: HECA 192300Z 2000/2106 35010KT CAVOK TEMPO 2000/2008 VRB03KT 6000 NSC TEMPO 2003/2006 3000 BR NSC

Waarnemingen en weersverwachtingen van meer dan 4000 vliegvelden (METAR en TAF).

De beschikbare stations zijn de gele en rode punten op de kaart.

Ga met uw muis naar het station om de naam te zien.

Klik dan om waarnemingen en weersverwachtingen te zien.

kaart wijzigen: klik op de groene knoppen met een zwart kruis om in te zoomen, op de groene knop met een streepje om uit te zoomen of op de groene pijlen voor aangrenzende kaarten.


METAR-TAF: